createdAt,value
2022-11-09T00:00:47.978Z,3.73
2022-11-09T00:05:57.747Z,7.00
2022-11-09T00:11:06.607Z,3.87
2022-11-09T00:16:11.522Z,7.33
2022-11-09T00:21:16.474Z,8.03
2022-11-09T00:26:22.083Z,4.67
2022-11-09T00:31:26.245Z,6.17
2022-11-09T00:36:30.888Z,7.47
2022-11-09T00:41:35.297Z,8.50
2022-11-09T00:46:38.335Z,8.60
2022-11-09T00:51:41.546Z,5.60
2022-11-09T00:56:46.343Z,8.70
2022-11-09T01:01:49.891Z,7.00
2022-11-09T01:06:54.669Z,5.77
2022-11-09T01:12:00.290Z,8.07
2022-11-09T01:17:03.498Z,6.60
2022-11-09T01:22:06.893Z,7.10
2022-11-09T01:27:11.497Z,5.67
2022-11-09T01:32:14.575Z,8.03
2022-11-09T01:37:17.524Z,9.23
2022-11-09T01:42:25.824Z,7.77
2022-11-09T01:47:28.939Z,8.13
2022-11-09T01:52:37.475Z,6.33
2022-11-09T01:57:51.359Z,6.13
2022-11-09T02:02:58.328Z,5.40
2022-11-09T02:08:03.981Z,6.93
2022-11-09T02:13:09.620Z,4.10
2022-11-09T02:18:14.260Z,5.87
2022-11-09T02:23:20.007Z,3.93
2022-11-09T02:28:24.101Z,4.23
2022-11-09T02:33:27.442Z,5.03
2022-11-09T02:38:33.208Z,6.73
2022-11-09T02:43:37.934Z,4.67
2022-11-09T02:48:41.360Z,4.37
2022-11-09T02:53:45.791Z,3.43
2022-11-09T02:58:48.923Z,4.80
2022-11-09T03:03:53.274Z,3.83
2022-11-09T03:08:57.802Z,6.23
2022-11-09T03:14:01.173Z,5.70
2022-11-09T03:19:04.852Z,3.47
2022-11-09T03:24:10.612Z,5.47
2022-11-09T03:29:15.766Z,4.17
2022-11-09T03:34:19.130Z,7.33
2022-11-09T03:39:23.877Z,7.37
2022-11-09T03:44:27.037Z,5.17
2022-11-09T03:49:30.499Z,4.17
2022-11-09T03:54:35.100Z,8.77
2022-11-09T03:59:38.992Z,7.90
2022-11-09T04:04:42.052Z,7.67
2022-11-09T04:09:46.422Z,4.60
2022-11-09T04:14:49.535Z,8.97
2022-11-09T04:19:52.664Z,6.80
2022-11-09T04:24:57.400Z,9.83
2022-11-09T04:30:00.479Z,5.27
2022-11-09T04:35:04.255Z,4.37
2022-11-09T04:40:10.313Z,5.77
2022-11-09T04:45:13.330Z,7.40
2022-11-09T04:50:16.913Z,3.93
2022-11-09T04:55:21.547Z,5.13
2022-11-09T05:00:24.579Z,7.77
2022-11-09T05:05:27.872Z,9.67
2022-11-09T05:10:33.304Z,7.30
2022-11-09T05:15:37.794Z,7.70
2022-11-09T05:20:41.087Z,5.10
2022-11-09T05:25:46.179Z,6.47
2022-11-09T05:30:49.263Z,7.73
2022-11-09T05:35:52.329Z,4.00
2022-11-09T05:40:56.662Z,6.23
2022-11-09T05:46:03.880Z,8.43
2022-11-09T05:51:12.668Z,6.50
2022-11-09T05:56:17.133Z,7.37
2022-11-09T06:01:20.337Z,7.60
2022-11-09T06:06:23.373Z,9.90
2022-11-09T06:11:29.905Z,9.43
2022-11-09T06:16:33.034Z,7.13
2022-11-09T06:21:36.159Z,6.20
2022-11-09T06:26:40.900Z,5.87
2022-11-09T06:31:44.007Z,6.37
2022-11-09T06:36:47.512Z,8.07
2022-11-09T06:41:51.940Z,9.50
2022-11-09T06:46:55.390Z,8.57
2022-11-09T06:51:58.448Z,7.53
2022-11-09T06:57:03.049Z,7.37
2022-11-09T07:02:06.502Z,5.17
2022-11-09T07:07:09.653Z,5.63
2022-11-09T07:12:14.242Z,10.93
2022-11-09T07:17:17.551Z,6.70
2022-11-09T07:22:21.002Z,5.90
2022-11-09T07:27:28.116Z,12.27
2022-11-09T07:33:07.000Z,7.67
2022-11-09T07:38:01.402Z,6.90
2022-11-09T07:43:07.809Z,8.53
2022-11-09T07:48:14.514Z,8.60
2022-11-09T07:53:18.200Z,11.13
2022-11-09T07:58:22.795Z,8.53
2022-11-09T08:03:26.193Z,8.60
2022-11-09T08:08:29.281Z,8.03
2022-11-09T08:13:34.205Z,8.80
2022-11-09T08:18:37.206Z,5.33
2022-11-09T08:23:40.585Z,9.67
2022-11-09T08:28:45.437Z,6.53
2022-11-09T08:33:48.654Z,8.13
2022-11-09T08:38:52.256Z,9.83
2022-11-09T08:43:56.687Z,10.30
2022-11-09T08:48:59.779Z,7.47
2022-11-09T08:54:02.946Z,6.07
2022-11-09T08:59:07.504Z,8.40
2022-11-09T09:04:10.813Z,7.53
2022-11-09T09:09:13.774Z,6.57
2022-11-09T09:14:18.488Z,12.63
2022-11-09T09:19:21.437Z,10.57
2022-11-09T09:24:24.792Z,6.80
2022-11-09T09:29:29.254Z,10.23
2022-11-09T09:34:32.522Z,6.93
2022-11-09T09:39:35.780Z,7.07
2022-11-09T09:44:44.575Z,11.37
2022-11-09T09:49:53.557Z,8.87
2022-11-09T09:55:02.341Z,5.10
2022-11-09T10:00:10.585Z,7.97
2022-11-09T10:05:18.175Z,7.37
2022-11-09T10:10:44.445Z,5.50
2022-11-09T10:15:54.386Z,7.97
2022-11-09T10:21:10.265Z,6.50
2022-11-09T10:26:19.984Z,6.00
2022-11-09T10:31:25.254Z,13.00
2022-11-09T10:36:33.114Z,6.67
2022-11-09T10:41:40.767Z,10.70
2022-11-09T10:47:09.270Z,7.37
2022-11-09T10:52:43.038Z,5.23
2022-11-09T10:58:22.759Z,10.07
2022-11-09T11:03:46.861Z,9.63
2022-11-09T11:09:17.708Z,5.97
2022-11-09T11:14:45.009Z,3.97
2022-11-09T11:20:30.083Z,5.30
2022-11-09T11:26:08.216Z,6.37
2022-11-09T11:31:30.177Z,7.47
2022-11-09T11:37:07.475Z,7.43
2022-11-09T11:43:03.076Z,8.63
2022-11-09T11:48:59.005Z,8.20
2022-11-09T11:54:32.656Z,6.13
2022-11-09T12:00:05.586Z,6.10
2022-11-09T12:05:55.190Z,6.27
2022-11-09T12:11:27.009Z,6.17
2022-11-09T12:16:54.450Z,7.13
2022-11-09T12:22:22.692Z,5.70
2022-11-09T12:28:06.216Z,7.57
2022-11-09T12:33:39.446Z,6.77
2022-11-09T12:39:11.665Z,4.03
2022-11-09T12:44:41.669Z,5.13
2022-11-09T12:50:03.684Z,5.03
2022-11-09T12:55:32.198Z,3.67
2022-11-09T13:00:57.996Z,3.23
2022-11-09T13:06:22.810Z,5.13
2022-11-09T13:11:47.452Z,5.30
2022-11-09T13:17:42.741Z,2.57
2022-11-09T13:23:47.700Z,6.30
2022-11-09T13:29:11.008Z,5.50
2022-11-09T13:34:43.838Z,2.87
2022-11-09T13:40:39.980Z,3.87
2022-11-09T13:46:05.641Z,3.70
2022-11-09T13:51:43.583Z,5.10
2022-11-09T13:57:08.128Z,4.40
2022-11-09T14:02:31.298Z,6.07
2022-11-09T14:07:55.553Z,5.47
2022-11-09T14:13:44.137Z,5.73
2022-11-09T14:19:28.015Z,3.20
2022-11-09T14:24:50.318Z,4.67
2022-11-09T14:30:20.077Z,4.23
2022-11-09T14:35:43.190Z,6.33
2022-11-09T14:41:05.265Z,6.43
2022-11-09T14:46:29.738Z,5.20
2022-11-09T14:51:53.069Z,3.57
2022-11-09T14:57:16.743Z,5.67
2022-11-09T15:02:39.414Z,2.40
2022-11-09T15:08:03.209Z,7.23
2022-11-09T15:13:32.665Z,4.73
2022-11-09T15:18:54.582Z,6.80
2022-11-09T15:24:19.231Z,5.87
2022-11-09T15:29:43.086Z,7.10
2022-11-09T15:35:16.990Z,5.57
2022-11-09T15:40:40.459Z,6.80
2022-11-09T15:46:02.486Z,4.93
2022-11-09T15:51:24.682Z,7.17
2022-11-09T15:56:48.354Z,5.07
2022-11-09T16:02:11.967Z,3.87
2022-11-09T16:07:33.751Z,4.30
2022-11-09T16:12:57.026Z,5.03
2022-11-09T16:18:25.482Z,5.03
2022-11-09T16:23:48.124Z,4.87
2022-11-09T16:29:11.384Z,4.90
2022-11-09T16:34:33.170Z,3.37
2022-11-09T16:39:55.321Z,6.33
2022-11-09T16:45:19.514Z,5.90
2022-11-09T16:50:41.553Z,5.57
2022-11-09T16:56:03.232Z,3.30
2022-11-09T17:01:26.668Z,9.00
2022-11-09T17:06:48.286Z,4.43
2022-11-09T17:12:09.781Z,7.07
2022-11-09T17:17:33.232Z,6.40
2022-11-09T17:22:55.398Z,2.83
2022-11-09T17:28:17.489Z,5.43
2022-11-09T17:33:40.966Z,7.73
2022-11-09T17:39:02.644Z,5.23
2022-11-09T17:44:24.230Z,5.77
2022-11-09T17:49:47.685Z,4.67
2022-11-09T17:55:09.889Z,5.27
2022-11-09T18:00:31.732Z,7.90
2022-11-09T18:05:55.074Z,6.07
2022-11-09T18:11:18.781Z,9.77
2022-11-09T18:16:40.521Z,9.67
2022-11-09T18:22:04.922Z,8.07
2022-11-09T18:27:30.546Z,6.37
2022-11-09T18:32:52.915Z,4.83
2022-11-09T18:38:20.017Z,8.13
2022-11-09T18:43:42.762Z,7.33
2022-11-09T18:49:08.929Z,7.20
2022-11-09T18:54:36.160Z,8.57
2022-11-09T18:59:57.968Z,7.63
2022-11-09T19:05:19.778Z,11.30
2022-11-09T19:10:42.826Z,8.13
2022-11-09T19:16:04.713Z,9.47
2022-11-09T19:21:37.885Z,9.60
2022-11-09T19:27:01.659Z,9.13
2022-11-09T19:32:23.661Z,6.30
2022-11-09T19:37:45.720Z,10.43
2022-11-09T19:43:08.413Z,9.17
2022-11-09T19:48:29.892Z,11.90
2022-11-09T19:53:52.915Z,7.83
2022-11-09T19:59:17.840Z,9.27
2022-11-09T20:04:40.131Z,13.77
2022-11-09T20:10:03.537Z,10.57
2022-11-09T20:15:26.713Z,13.10
2022-11-09T20:20:48.808Z,10.73
2022-11-09T20:26:12.079Z,8.83
2022-11-09T20:31:36.782Z,8.30
2022-11-09T20:36:58.255Z,11.50
2022-11-09T20:42:19.752Z,7.70
2022-11-09T20:48:05.037Z,6.40
2022-11-09T20:53:24.511Z,12.53
2022-11-09T20:58:47.389Z,11.37
2022-11-09T21:04:11.203Z,11.23
2022-11-09T21:09:33.182Z,11.33
2022-11-09T21:14:54.930Z,11.60
2022-11-09T21:20:19.112Z,9.90
2022-11-09T21:25:59.555Z,12.10
2022-11-09T21:31:21.845Z,12.03
2022-11-09T21:36:46.180Z,13.17
2022-11-09T21:42:08.256Z,11.67
2022-11-09T21:47:30.324Z,8.57
2022-11-09T21:52:53.103Z,13.03
2022-11-09T21:58:15.040Z,9.33
2022-11-09T22:03:36.966Z,10.33
2022-11-09T22:09:00.637Z,9.93
2022-11-09T22:14:40.026Z,10.03
2022-11-09T22:20:19.321Z,11.97
2022-11-09T22:25:47.805Z,16.03
2022-11-09T22:31:10.673Z,13.03
2022-11-09T22:36:32.384Z,12.27
2022-11-09T22:41:55.480Z,10.77
2022-11-09T22:47:17.075Z,13.20
2022-11-09T22:52:38.617Z,8.57
2022-11-09T22:58:02.167Z,13.03
2022-11-09T23:03:24.784Z,13.03
2022-11-09T23:08:46.999Z,12.10
2022-11-09T23:14:10.053Z,12.93
2022-11-09T23:19:32.101Z,12.33
2022-11-09T23:25:26.155Z,12.03
2022-11-09T23:30:49.566Z,14.50
2022-11-09T23:36:11.665Z,12.70
2022-11-09T23:41:33.953Z,14.17
2022-11-09T23:46:56.952Z,17.27
2022-11-09T23:52:18.809Z,11.57
2022-11-09T23:57:41.116Z,10.77
